createdAt,value
2018-11-21T00:01:17.727Z,15.70
2018-11-21T00:03:57.147Z,16.00
2018-11-21T00:06:24.840Z,17.90
2018-11-21T00:09:11.749Z,19.95
2018-11-21T00:11:51.247Z,18.60
2018-11-21T00:14:31.075Z,17.45
2018-11-21T00:20:35.963Z,18.85
2018-11-21T00:23:15.723Z,16.73
2018-11-21T00:25:56.052Z,17.50
2018-11-21T00:28:35.770Z,19.45
2018-11-21T00:31:15.711Z,19.07
2018-11-21T00:33:55.212Z,19.90
2018-11-21T00:36:34.913Z,20.00
2018-11-21T00:39:14.695Z,18.40
2018-11-21T00:41:54.521Z,18.35
2018-11-21T00:44:33.958Z,16.87
2018-11-21T00:47:13.913Z,19.75
2018-11-21T00:49:54.352Z,20.77
2018-11-21T00:52:34.967Z,22.55
2018-11-21T00:55:14.392Z,20.05
2018-11-21T00:57:54.237Z,21.95
2018-11-21T01:00:33.887Z,21.07
2018-11-21T01:03:13.662Z,22.65
2018-11-21T01:05:53.932Z,23.65
2018-11-21T01:08:33.780Z,21.68
2018-11-21T01:11:14.055Z,18.23
2018-11-21T01:13:53.965Z,18.27
2018-11-21T01:16:33.751Z,19.42
2018-11-21T01:19:13.915Z,19.87
2018-11-21T01:21:53.618Z,19.10
2018-11-21T01:24:33.590Z,20.12
2018-11-21T01:27:13.522Z,21.15
2018-11-21T01:29:53.226Z,23.77
2018-11-21T01:32:32.869Z,23.27
2018-11-21T01:35:12.197Z,23.52
2018-11-21T01:37:52.174Z,21.90
2018-11-21T01:40:31.742Z,23.22
2018-11-21T01:43:11.300Z,21.80
2018-11-21T01:45:51.042Z,22.13
2018-11-21T01:48:31.349Z,22.42
2018-11-21T01:51:11.045Z,21.40
2018-11-21T01:53:50.599Z,21.80
2018-11-21T01:56:30.290Z,20.50
2018-11-21T01:59:10.174Z,21.02
2018-11-21T02:01:50.779Z,21.75
2018-11-21T02:04:30.900Z,21.82
2018-11-21T02:07:11.008Z,23.27
2018-11-21T02:09:50.697Z,22.55
2018-11-21T02:12:30.570Z,21.97
2018-11-21T02:15:10.402Z,21.45
2018-11-21T02:17:49.925Z,21.85
2018-11-21T02:20:29.813Z,21.17
2018-11-21T02:23:09.404Z,20.65
2018-11-21T02:25:49.091Z,20.95
2018-11-21T02:28:28.880Z,20.25
2018-11-21T02:30:55.932Z,21.95
2018-11-21T02:33:42.561Z,20.15
2018-11-21T02:36:22.537Z,20.00
2018-11-21T02:39:02.683Z,22.67
2018-11-21T02:41:42.249Z,21.45
2018-11-21T02:44:22.192Z,20.90
2018-11-21T02:47:01.721Z,21.40
2018-11-21T02:49:41.318Z,19.90
2018-11-21T02:52:21.259Z,20.08
2018-11-21T02:55:01.118Z,20.77
2018-11-21T02:57:41.083Z,20.55
2018-11-21T03:00:21.179Z,18.55
2018-11-21T03:03:00.755Z,21.40
2018-11-21T03:05:40.358Z,20.40
2018-11-21T03:08:20.124Z,20.05
2018-11-21T03:10:59.915Z,20.00
2018-11-21T03:13:39.864Z,19.70
2018-11-21T03:16:19.550Z,20.60
2018-11-21T03:18:59.333Z,22.52
2018-11-21T03:21:39.292Z,21.97
2018-11-21T03:24:19.006Z,21.07
2018-11-21T03:26:58.729Z,22.80
2018-11-21T03:29:38.502Z,21.95
2018-11-21T03:32:18.331Z,22.77
2018-11-21T03:34:57.901Z,23.05
2018-11-21T03:37:37.409Z,21.25
2018-11-21T03:40:17.479Z,22.98
2018-11-21T03:42:56.945Z,22.93
2018-11-21T03:45:36.554Z,21.42
2018-11-21T03:48:16.327Z,21.45
2018-11-21T03:50:56.019Z,23.00
2018-11-21T03:53:35.511Z,21.42
2018-11-21T03:56:14.914Z,21.95
2018-11-21T03:58:54.773Z,21.37
2018-11-21T04:01:34.555Z,21.97
2018-11-21T04:04:14.182Z,22.40
2018-11-21T04:06:54.088Z,22.30
2018-11-21T04:09:33.795Z,20.95
2018-11-21T04:12:13.737Z,19.65
2018-11-21T04:14:53.390Z,21.57
2018-11-21T04:17:33.302Z,19.45
2018-11-21T04:20:13.082Z,20.57
2018-11-21T04:22:52.694Z,20.12
2018-11-21T04:25:32.510Z,22.20
2018-11-21T04:28:12.400Z,20.60
2018-11-21T04:30:52.687Z,19.90
2018-11-21T04:33:32.079Z,20.30
2018-11-21T04:36:12.472Z,22.70
2018-11-21T04:38:52.606Z,24.67
2018-11-21T04:41:32.251Z,21.17
2018-11-21T04:44:11.974Z,23.75
2018-11-21T04:46:51.503Z,22.35
2018-11-21T04:49:31.147Z,24.27
2018-11-21T04:52:10.747Z,23.12
2018-11-21T04:54:50.534Z,25.32
2018-11-21T04:57:30.163Z,25.02
2018-11-21T05:00:10.391Z,26.07
2018-11-21T05:02:50.635Z,27.35
2018-11-21T05:05:30.150Z,26.02
2018-11-21T05:08:09.766Z,23.73
2018-11-21T05:10:49.482Z,26.70
2018-11-21T05:13:29.216Z,25.17
2018-11-21T05:15:56.350Z,27.05
2018-11-21T05:18:43.018Z,25.40
2018-11-21T05:21:23.247Z,26.05
2018-11-21T05:24:02.657Z,26.27
2018-11-21T05:26:42.419Z,24.00
2018-11-21T05:29:22.304Z,24.40
2018-11-21T05:32:02.206Z,24.15
2018-11-21T05:34:42.127Z,23.98
2018-11-21T05:37:22.118Z,25.30
2018-11-21T05:40:01.724Z,25.27
2018-11-21T05:42:41.625Z,23.47
2018-11-21T05:48:00.989Z,25.40
2018-11-21T05:50:40.664Z,25.55
2018-11-21T05:53:20.670Z,24.75
2018-11-21T05:56:00.220Z,25.80
2018-11-21T05:58:39.695Z,25.30
2018-11-21T06:01:20.172Z,25.00
2018-11-21T06:03:59.871Z,25.77
2018-11-21T06:06:39.244Z,26.62
2018-11-21T06:09:19.014Z,25.45
2018-11-21T06:12:04.233Z,24.65
2018-11-21T06:14:38.884Z,23.85
2018-11-21T06:17:19.732Z,23.50
2018-11-21T06:19:59.449Z,22.60
2018-11-21T06:22:39.071Z,22.75
2018-11-21T06:25:18.593Z,23.35
2018-11-21T06:27:58.483Z,23.02
2018-11-21T06:30:37.831Z,25.62
2018-11-21T06:33:17.382Z,26.35
2018-11-21T06:35:57.090Z,27.70
2018-11-21T06:41:16.768Z,24.55
2018-11-21T06:43:56.406Z,25.90
2018-11-21T06:46:36.337Z,23.15
2018-11-21T06:49:16.272Z,23.40
2018-11-21T06:51:56.171Z,22.58
2018-11-21T06:54:35.827Z,22.85
2018-11-21T06:57:15.810Z,23.42
2018-11-21T06:59:55.532Z,24.82
2018-11-21T07:02:35.776Z,23.20
2018-11-21T07:05:15.272Z,24.07
2018-11-21T07:07:57.730Z,24.72
2018-11-21T07:10:37.628Z,23.05
2018-11-21T07:13:17.709Z,23.87
2018-11-21T07:15:57.566Z,23.05
2018-11-21T07:18:24.975Z,22.58
2018-11-21T07:21:11.879Z,24.65
2018-11-21T07:23:52.019Z,25.08
2018-11-21T07:26:32.069Z,24.20
2018-11-21T07:29:12.025Z,24.77
2018-11-21T07:31:51.512Z,26.70
2018-11-21T07:34:31.227Z,25.95
2018-11-21T07:37:11.260Z,26.57
2018-11-21T07:39:50.762Z,24.77
2018-11-21T07:42:30.591Z,25.02
2018-11-21T07:45:11.462Z,26.25
2018-11-21T07:47:51.237Z,25.48
2018-11-21T07:50:31.021Z,27.37
2018-11-21T07:53:10.563Z,26.25
2018-11-21T07:55:50.486Z,25.70
2018-11-21T07:58:30.538Z,28.25
2018-11-21T08:01:29.943Z,29.25
2018-11-21T08:04:19.714Z,28.57
2018-11-21T08:07:19.490Z,29.57
2018-11-21T08:10:18.607Z,30.02
2018-11-21T08:13:17.729Z,30.97
2018-11-21T08:16:16.793Z,30.97
2018-11-21T08:19:16.674Z,29.15
2018-11-21T08:22:19.639Z,32.28
2018-11-21T08:25:25.301Z,30.85
2018-11-21T08:28:25.089Z,33.20
2018-11-21T08:31:05.396Z,26.23
2018-11-21T08:33:45.704Z,26.80
2018-11-21T08:36:25.403Z,26.15
2018-11-21T08:39:05.738Z,30.32
2018-11-21T08:41:46.341Z,26.52
2018-11-21T08:44:24.140Z,25.35
2018-11-21T08:47:11.142Z,26.05
2018-11-21T08:49:51.190Z,27.50
2018-11-21T08:52:30.982Z,26.40
2018-11-21T08:55:11.479Z,24.47
2018-11-21T08:57:51.469Z,28.32
2018-11-21T09:00:31.171Z,27.20
2018-11-21T09:06:09.933Z,26.68
2018-11-21T09:08:49.651Z,29.92
2018-11-21T09:11:29.203Z,30.50
2018-11-21T09:14:08.988Z,32.83
2018-11-21T09:16:48.379Z,31.70
2018-11-21T09:19:28.084Z,31.05
2018-11-21T09:22:07.509Z,32.78
2018-11-21T09:24:47.753Z,31.50
2018-11-21T09:27:27.191Z,32.45
2018-11-21T09:30:17.818Z,30.57
2018-11-21T09:33:04.849Z,34.00
2018-11-21T09:35:44.720Z,32.98
2018-11-21T09:38:24.365Z,33.13
2018-11-21T09:41:04.582Z,31.77
2018-11-21T09:43:44.711Z,33.60
2018-11-21T09:46:24.483Z,32.60
2018-11-21T09:49:04.329Z,32.40
2018-11-21T09:51:44.350Z,34.13
2018-11-21T09:54:24.477Z,33.90
2018-11-21T09:57:04.006Z,31.30
2018-11-21T09:59:44.143Z,34.10
2018-11-21T10:02:23.863Z,31.73
2018-11-21T10:05:03.914Z,32.03
2018-11-21T10:07:43.407Z,33.25
2018-11-21T10:10:23.563Z,33.15
2018-11-21T10:13:03.121Z,33.20
2018-11-21T10:15:42.898Z,34.90
2018-11-21T10:18:22.753Z,34.63
2018-11-21T10:21:02.525Z,34.92
2018-11-21T10:23:42.184Z,38.05
2018-11-21T10:26:21.722Z,34.08
2018-11-21T10:29:01.340Z,35.80
2018-11-21T10:31:41.313Z,37.93
2018-11-21T10:34:21.340Z,36.73
2018-11-21T10:37:01.035Z,38.78
2018-11-21T10:39:40.881Z,37.75
2018-11-21T10:42:20.907Z,38.55
2018-11-21T10:45:01.283Z,38.78
2018-11-21T10:47:41.524Z,38.02
2018-11-21T10:50:21.852Z,38.60
2018-11-21T10:53:01.508Z,39.20
2018-11-21T10:55:41.238Z,43.78
2018-11-21T10:58:20.603Z,39.63
2018-11-21T11:01:19.810Z,40.88
2018-11-21T11:04:06.421Z,40.30
2018-11-21T11:07:06.176Z,39.03
2018-11-21T11:10:05.899Z,39.60
2018-11-21T11:13:11.343Z,36.75
2018-11-21T11:16:13.656Z,37.70
2018-11-21T11:19:13.360Z,39.80
2018-11-21T11:21:54.272Z,38.92
2018-11-21T11:24:35.072Z,36.48
2018-11-21T11:27:15.913Z,37.35
2018-11-21T11:30:21.717Z,38.38
2018-11-21T11:33:21.470Z,35.45
2018-11-21T11:36:02.357Z,35.92
2018-11-21T11:39:01.950Z,35.55
2018-11-21T11:42:01.240Z,38.50
2018-11-21T11:45:01.034Z,39.40
2018-11-21T11:48:00.161Z,36.73
2018-11-21T11:50:59.511Z,35.80
2018-11-21T11:53:57.208Z,37.48
2018-11-21T11:57:03.491Z,37.13
2018-11-21T12:00:02.513Z,35.13
2018-11-21T12:03:01.445Z,37.42
2018-11-21T12:06:04.102Z,36.17
2018-11-21T12:08:53.968Z,35.35
2018-11-21T12:11:53.029Z,36.75
2018-11-21T12:14:52.256Z,32.90
2018-11-21T12:17:51.518Z,35.90
2018-11-21T12:20:51.472Z,36.65
2018-11-21T12:23:51.093Z,33.42
2018-11-21T12:26:37.227Z,37.10
2018-11-21T12:29:42.761Z,34.13
2018-11-21T12:32:42.427Z,38.53
2018-11-21T12:35:41.410Z,35.78
2018-11-21T12:38:39.067Z,34.58
2018-11-21T12:41:41.149Z,36.63
2018-11-21T12:44:44.040Z,35.00
2018-11-21T12:47:43.761Z,33.78
2018-11-21T12:50:31.007Z,33.83
2018-11-21T12:53:37.274Z,34.35
2018-11-21T12:56:36.832Z,38.40
2018-11-21T12:59:24.252Z,35.65
2018-11-21T13:02:30.474Z,31.50
2018-11-21T13:05:29.624Z,32.95
2018-11-21T13:08:16.366Z,33.80
2018-11-21T13:11:21.482Z,33.08
2018-11-21T13:14:20.778Z,33.15
2018-11-21T13:17:20.523Z,35.08
2018-11-21T13:20:20.257Z,34.67
2018-11-21T13:23:19.345Z,32.23
2018-11-21T13:26:25.547Z,32.90
2018-11-21T13:29:25.261Z,33.90
2018-11-21T13:32:25.066Z,36.00
2018-11-21T13:35:24.077Z,33.60
2018-11-21T13:38:23.315Z,37.53
2018-11-21T13:41:06.683Z,33.15
2018-11-21T13:44:13.015Z,32.48
2018-11-21T13:50:34.604Z,35.17
2018-11-21T13:53:34.244Z,31.87
2018-11-21T13:56:14.387Z,33.95
2018-11-21T13:58:54.310Z,32.80
2018-11-21T14:01:34.727Z,34.67
2018-11-21T14:04:14.754Z,35.30
2018-11-21T14:06:54.196Z,36.15
2018-11-21T14:09:34.091Z,34.65
2018-11-21T14:12:13.782Z,34.78
2018-11-21T14:14:54.476Z,33.85
2018-11-21T14:17:34.854Z,33.40
2018-11-21T14:20:15.220Z,31.73
2018-11-21T14:22:55.471Z,35.13
2018-11-21T14:25:35.699Z,34.85
2018-11-21T14:28:15.754Z,33.95
2018-11-21T14:30:55.909Z,33.40
2018-11-21T14:33:35.350Z,34.20
2018-11-21T14:36:14.797Z,33.75
2018-11-21T14:38:54.692Z,33.15
2018-11-21T14:41:32.479Z,34.10
2018-11-21T14:44:19.230Z,34.05
2018-11-21T14:46:59.368Z,32.20
2018-11-21T14:49:38.843Z,34.10
2018-11-21T14:52:18.570Z,35.68
2018-11-21T14:54:58.938Z,32.98
2018-11-21T14:57:39.299Z,34.08
2018-11-21T15:00:19.763Z,34.88
2018-11-21T15:02:59.823Z,35.45
2018-11-21T15:05:40.197Z,33.83
2018-11-21T15:08:20.113Z,32.50
2018-11-21T15:10:59.716Z,33.90
2018-11-21T15:13:39.434Z,34.98
2018-11-21T15:16:18.922Z,34.88
2018-11-21T15:18:58.421Z,36.35
2018-11-21T15:21:38.016Z,35.30
2018-11-21T15:24:17.835Z,34.35
2018-11-21T15:26:57.376Z,34.43
2018-11-21T15:29:36.970Z,36.13
2018-11-21T15:32:17.011Z,39.30
2018-11-21T15:34:57.594Z,38.65
2018-11-21T15:37:38.632Z,36.03
2018-11-21T15:40:20.379Z,36.45
2018-11-21T15:43:00.588Z,35.63
2018-11-21T15:45:40.338Z,36.88
2018-11-21T15:48:20.035Z,38.08
2018-11-21T15:50:59.922Z,38.40
2018-11-21T15:53:40.112Z,33.90
2018-11-21T15:56:19.850Z,35.25
2018-11-21T15:58:59.717Z,34.05
2018-11-21T16:01:39.679Z,32.88
2018-11-21T16:04:20.330Z,32.88
2018-11-21T16:06:59.858Z,31.40
2018-11-21T16:09:39.888Z,36.83
2018-11-21T16:12:19.973Z,32.03
2018-11-21T16:14:59.320Z,31.30
2018-11-21T16:17:39.024Z,31.30
2018-11-21T16:20:18.731Z,32.88
2018-11-21T16:22:58.459Z,32.03
2018-11-21T16:25:38.281Z,31.02
2018-11-21T16:28:17.893Z,33.50
2018-11-21T16:30:57.825Z,34.55
2018-11-21T16:33:37.841Z,34.20
2018-11-21T16:36:17.351Z,33.63
2018-11-21T16:38:57.427Z,32.63
2018-11-21T16:41:37.057Z,30.88
2018-11-21T16:44:16.631Z,32.67
2018-11-21T16:46:56.734Z,32.90
2018-11-21T16:49:36.445Z,33.78
2018-11-21T16:52:16.026Z,29.92
2018-11-21T16:54:53.927Z,37.35
2018-11-21T16:57:40.894Z,36.68
2018-11-21T17:00:22.546Z,31.82
2018-11-21T17:03:02.993Z,30.68
2018-11-21T17:05:42.623Z,30.70
